Terminal Aerodrome Forecast
Issued by NWS

Home | Current Version | Previous Version | Text Only | Print | Product List | Glossary On
Versions: 1 2 3 4 5 6 7 8 9 10 11 12 13 14 15 16 17 18 19
000
FTUS46 KMTR 251100
TAFSNS
TAF
KSNS 251134Z 2512/2612 29008KT 5SM BR BKN004
     FM251600 VRB03KT P6SM FEW010
     FM252100 29012KT P6SM SKC
     FM260400 30005KT P6SM SKC=

USA.gov is the U.S. government's official web portal to all federal, state and local government web resources and services.